createdAt,value
2023-02-24T00:02:01.421Z,1.00
2023-02-24T00:04:38.609Z,1.00
2023-02-24T00:07:10.952Z,1.00
2023-02-24T00:09:39.371Z,1.00
2023-02-24T00:12:13.630Z,1.00
2023-02-24T00:14:43.985Z,1.00
2023-02-24T00:17:14.795Z,2.60
2023-02-24T00:19:42.220Z,2.90
2023-02-24T00:22:09.598Z,1.70
2023-02-24T00:24:37.424Z,1.20
2023-02-24T00:27:07.917Z,1.00
2023-02-24T00:29:37.780Z,1.00
2023-02-24T00:32:08.065Z,1.00
2023-02-24T00:34:37.690Z,1.00
2023-02-24T00:37:09.563Z,1.00
2023-02-24T00:39:41.367Z,1.00
2023-02-24T00:42:09.069Z,1.00
2023-02-24T00:44:39.636Z,1.00
2023-02-24T00:47:10.465Z,1.00
2023-02-24T00:49:43.008Z,1.00
2023-02-24T00:52:16.949Z,1.00
2023-02-24T00:54:45.964Z,7.40
2023-02-24T00:57:14.437Z,10.00
2023-02-24T00:59:42.535Z,12.30
2023-02-24T01:02:11.551Z,7.80
2023-02-24T01:04:39.233Z,8.20
2023-02-24T01:07:10.969Z,6.30
2023-02-24T01:09:40.290Z,4.80
2023-02-24T01:12:22.573Z,7.60
2023-02-24T01:14:52.608Z,6.30
2023-02-24T01:17:21.131Z,6.60
2023-02-24T01:19:49.968Z,5.90
2023-02-24T01:22:19.826Z,9.30
2023-02-24T01:24:47.799Z,5.00
2023-02-24T01:27:18.962Z,5.00
2023-02-24T01:29:47.917Z,5.20
2023-02-24T01:32:22.132Z,1.60
2023-02-24T01:34:52.376Z,1.00
2023-02-24T01:37:20.943Z,1.00
2023-02-24T01:39:48.525Z,1.50
2023-02-24T01:42:21.328Z,1.00
2023-02-24T01:44:48.955Z,1.00
2023-02-24T01:47:20.930Z,1.00
2023-02-24T01:49:51.204Z,2.40
2023-02-24T01:52:25.577Z,19.90
2023-02-24T01:55:16.729Z,12.50
2023-02-24T01:57:46.264Z,10.20
2023-02-24T02:00:32.331Z,9.70
2023-02-24T02:03:08.245Z,16.10
2023-02-24T02:05:37.227Z,18.70
2023-02-24T02:08:05.107Z,16.00
2023-02-24T02:10:34.025Z,18.60
2023-02-24T02:13:04.688Z,12.20
2023-02-24T02:15:37.057Z,8.00
2023-02-24T02:18:42.977Z,15.20
2023-02-24T02:21:33.503Z,7.40
2023-02-24T02:24:04.568Z,3.50
2023-02-24T02:26:58.308Z,2.80
2023-02-24T02:29:34.287Z,1.00
2023-02-24T02:32:04.137Z,1.00
2023-02-24T02:35:06.496Z,1.00
2023-02-24T02:37:45.468Z,1.00
2023-02-24T02:40:22.763Z,1.00
2023-02-24T02:43:41.833Z,1.00
2023-02-24T02:46:17.636Z,1.00
2023-02-24T02:48:58.220Z,1.50
2023-02-24T02:51:33.403Z,2.90
2023-02-24T02:54:10.316Z,6.80
2023-02-24T02:56:57.241Z,8.80
2023-02-24T02:59:27.840Z,10.40
2023-02-24T03:02:11.680Z,5.10
2023-02-24T03:04:54.318Z,5.30
2023-02-24T03:07:24.086Z,7.20
2023-02-24T03:09:56.576Z,5.80
2023-02-24T03:12:26.888Z,5.10
2023-02-24T03:15:00.281Z,4.50
2023-02-24T03:17:32.837Z,6.30
2023-02-24T03:20:13.036Z,4.70
2023-02-24T03:22:45.995Z,4.90
2023-02-24T03:25:13.393Z,6.10
2023-02-24T03:27:58.106Z,4.30
2023-02-24T03:30:32.289Z,6.00
2023-02-24T03:33:12.004Z,4.40
2023-02-24T03:35:42.277Z,5.30
2023-02-24T03:38:10.718Z,11.20
2023-02-24T03:40:39.091Z,10.60
2023-02-24T03:43:08.974Z,9.30
2023-02-24T03:45:41.159Z,6.50
2023-02-24T03:48:09.773Z,3.10
2023-02-24T03:50:39.815Z,3.70
2023-02-24T03:53:30.594Z,1.50
2023-02-24T03:56:13.272Z,2.50
2023-02-24T03:59:13.102Z,2.10
2023-02-24T04:01:46.591Z,8.00
2023-02-24T04:04:36.725Z,3.60
2023-02-24T04:07:33.190Z,8.40
2023-02-24T04:10:09.508Z,3.30
2023-02-24T04:12:47.131Z,2.80
2023-02-24T04:15:44.017Z,1.30
2023-02-24T04:18:21.245Z,4.90
2023-02-24T04:20:53.649Z,4.00
2023-02-24T04:23:26.855Z,4.90
2023-02-24T04:25:57.407Z,9.40
2023-02-24T04:28:27.674Z,14.50
2023-02-24T04:31:05.815Z,13.70
2023-02-24T04:33:33.889Z,8.90
2023-02-24T04:36:01.153Z,6.00
2023-02-24T04:38:28.522Z,5.30
2023-02-24T04:40:55.860Z,5.60
2023-02-24T04:43:23.237Z,5.90
2023-02-24T04:45:51.682Z,13.40
2023-02-24T04:48:20.328Z,13.80
2023-02-24T04:50:55.261Z,13.40
2023-02-24T04:53:27.334Z,9.70
2023-02-24T04:56:12.980Z,3.60
2023-02-24T04:58:58.275Z,10.50
2023-02-24T05:01:44.949Z,6.90
2023-02-24T05:04:14.209Z,1.90
2023-02-24T05:06:44.024Z,1.00
2023-02-24T05:09:19.514Z,4.20
2023-02-24T05:11:49.925Z,3.90
2023-02-24T05:14:20.776Z,5.90
2023-02-24T05:16:49.328Z,2.50
2023-02-24T05:19:37.655Z,1.00
2023-02-24T05:22:07.328Z,1.00
2023-02-24T05:24:35.095Z,1.00
2023-02-24T05:27:03.915Z,9.60
2023-02-24T05:29:35.179Z,1.00
2023-02-24T05:32:04.750Z,1.00
2023-02-24T05:34:33.739Z,1.00
2023-02-24T05:37:10.223Z,1.00
2023-02-24T05:39:37.998Z,1.60
2023-02-24T05:42:07.007Z,1.00
2023-02-24T05:44:35.876Z,1.00
2023-02-24T05:47:05.610Z,1.00
2023-02-24T05:49:34.956Z,2.40
2023-02-24T05:52:08.883Z,9.10
2023-02-24T05:54:39.425Z,11.00
2023-02-24T05:57:12.330Z,8.90
2023-02-24T05:59:41.413Z,2.40
2023-02-24T06:02:11.829Z,5.60
2023-02-24T06:04:45.956Z,8.90
2023-02-24T06:07:19.716Z,2.60
2023-02-24T06:09:53.655Z,1.00
2023-02-24T06:12:40.003Z,1.00
2023-02-24T06:15:08.289Z,5.20
2023-02-24T06:17:35.743Z,5.40
2023-02-24T06:20:13.794Z,7.60
2023-02-24T06:22:42.602Z,5.90
2023-02-24T06:25:14.228Z,4.00
2023-02-24T06:27:43.182Z,1.00
2023-02-24T06:30:11.149Z,1.00
2023-02-24T06:32:38.604Z,1.00
2023-02-24T06:35:06.202Z,1.00
2023-02-24T06:37:33.394Z,1.00
2023-02-24T06:40:01.555Z,1.00
2023-02-24T06:42:28.848Z,1.00
2023-02-24T06:44:56.206Z,1.00
2023-02-24T06:47:23.462Z,1.00
2023-02-24T06:49:50.712Z,1.00
2023-02-24T06:52:19.163Z,1.00
2023-02-24T06:54:49.148Z,1.00
2023-02-24T06:57:16.534Z,1.00
2023-02-24T06:59:43.880Z,1.00
2023-02-24T07:02:11.579Z,1.00
2023-02-24T07:04:44.139Z,1.00
2023-02-24T07:07:14.383Z,1.00
2023-02-24T07:09:42.857Z,1.00
2023-02-24T07:12:12.674Z,1.00
2023-02-24T07:14:40.709Z,1.00
2023-02-24T07:17:08.603Z,1.00
2023-02-24T07:19:36.809Z,1.00
2023-02-24T07:22:04.218Z,1.00
2023-02-24T07:24:36.204Z,1.00
2023-02-24T07:27:10.821Z,1.00
2023-02-24T07:29:38.898Z,1.00
2023-02-24T07:32:08.904Z,1.00
2023-02-24T07:34:40.383Z,1.00
2023-02-24T07:37:09.222Z,1.00
2023-02-24T07:39:38.287Z,1.00
2023-02-24T07:42:07.652Z,1.00
2023-02-24T07:44:34.861Z,1.00
2023-02-24T07:47:07.882Z,1.00
2023-02-24T07:49:36.286Z,1.00
2023-02-24T07:52:04.010Z,1.00
2023-02-24T07:54:31.225Z,1.00
2023-02-24T07:56:59.714Z,1.00
2023-02-24T07:59:33.174Z,1.00
2023-02-24T08:02:04.714Z,1.00
2023-02-24T08:04:33.221Z,1.00
2023-02-24T08:07:03.683Z,1.00
2023-02-24T08:09:46.816Z,1.00
2023-02-24T08:12:27.958Z,1.00
2023-02-24T08:15:00.265Z,1.00
2023-02-24T08:17:28.166Z,1.00
2023-02-24T08:20:28.904Z,1.00
2023-02-24T08:22:56.676Z,1.00
2023-02-24T08:25:35.785Z,1.00
2023-02-24T08:28:08.975Z,1.00
2023-02-24T08:30:39.975Z,1.00
2023-02-24T08:33:10.144Z,1.00
2023-02-24T08:35:44.749Z,1.00
2023-02-24T08:38:16.990Z,1.00
2023-02-24T08:40:51.592Z,1.00
2023-02-24T08:43:30.490Z,1.00
2023-02-24T08:46:01.026Z,1.00
2023-02-24T08:48:37.565Z,1.00
2023-02-24T08:51:07.515Z,1.00
2023-02-24T08:53:35.657Z,1.00
2023-02-24T08:56:09.710Z,1.00
2023-02-24T08:58:47.309Z,1.00
2023-02-24T09:01:24.624Z,1.00
2023-02-24T09:03:57.999Z,1.00
2023-02-24T09:06:39.063Z,1.00
2023-02-24T09:09:18.941Z,1.00
2023-02-24T09:11:58.311Z,1.00
2023-02-24T09:14:36.509Z,1.00
2023-02-24T09:17:07.202Z,1.00
2023-02-24T09:19:51.379Z,1.00
2023-02-24T09:22:32.520Z,1.00
2023-02-24T09:25:40.727Z,1.00
2023-02-24T09:28:18.634Z,1.00
2023-02-24T09:30:55.351Z,1.00
2023-02-24T09:33:39.113Z,1.00
2023-02-24T09:36:10.727Z,1.00
2023-02-24T09:39:01.528Z,1.00
2023-02-24T09:42:02.515Z,1.00
2023-02-24T09:44:52.934Z,1.00
2023-02-24T09:48:05.816Z,1.00
2023-02-24T09:51:04.582Z,1.00
2023-02-24T09:53:49.471Z,1.00
2023-02-24T09:56:22.159Z,1.00
2023-02-24T09:58:49.510Z,1.90
2023-02-24T10:01:44.368Z,1.00
2023-02-24T10:04:49.245Z,1.00
2023-02-24T10:07:38.490Z,1.00
2023-02-24T10:10:20.152Z,1.00
2023-02-24T10:12:58.417Z,1.00
2023-02-24T10:15:58.599Z,1.00
2023-02-24T10:18:38.318Z,1.00
2023-02-24T10:21:48.308Z,1.00
2023-02-24T10:24:47.381Z,1.00
2023-02-24T10:27:25.931Z,1.00
2023-02-24T10:29:55.956Z,1.00
2023-02-24T10:32:35.099Z,1.00
2023-02-24T10:35:03.062Z,1.00
2023-02-24T10:37:30.348Z,1.00
2023-02-24T10:40:09.950Z,1.00
2023-02-24T10:42:46.005Z,1.00
2023-02-24T10:45:34.840Z,1.00
2023-02-24T10:48:08.576Z,1.00
2023-02-24T10:50:55.471Z,1.00
2023-02-24T10:53:37.818Z,1.00
2023-02-24T10:56:41.748Z,1.00
2023-02-24T10:59:24.490Z,1.00
2023-02-24T11:02:03.020Z,1.00
2023-02-24T11:05:04.846Z,1.00
2023-02-24T11:07:51.157Z,1.00
2023-02-24T11:10:42.801Z,1.00
2023-02-24T11:13:34.923Z,1.00
2023-02-24T11:16:34.386Z,1.00
2023-02-24T11:19:01.884Z,1.00
2023-02-24T11:21:29.160Z,1.00
2023-02-24T11:24:03.073Z,1.00
2023-02-24T11:26:43.894Z,1.00
2023-02-24T11:29:29.851Z,1.00
2023-02-24T11:32:23.152Z,1.00
2023-02-24T11:35:09.498Z,1.00
2023-02-24T11:37:43.671Z,1.00
2023-02-24T11:40:28.104Z,1.00
2023-02-24T11:43:18.623Z,1.00
2023-02-24T11:45:47.336Z,1.00
2023-02-24T11:48:32.220Z,1.00
2023-02-24T11:51:06.087Z,1.00
2023-02-24T11:53:59.777Z,1.00
2023-02-24T11:56:52.464Z,1.00
2023-02-24T11:59:29.506Z,1.00
2023-02-24T12:02:18.711Z,1.00
2023-02-24T12:05:01.167Z,1.00
2023-02-24T12:07:36.288Z,1.00
2023-02-24T12:10:25.439Z,1.00
2023-02-24T12:13:15.195Z,1.00
2023-02-24T12:16:07.914Z,1.00
2023-02-24T12:18:59.183Z,1.00
2023-02-24T12:21:39.460Z,1.00
2023-02-24T12:24:12.460Z,1.00
2023-02-24T12:26:48.178Z,1.00
2023-02-24T12:29:42.830Z,1.00
2023-02-24T12:32:43.057Z,1.00
2023-02-24T12:35:22.578Z,1.00
2023-02-24T12:38:09.455Z,1.00
2023-02-24T12:40:57.488Z,1.00
2023-02-24T12:43:40.389Z,1.00
2023-02-24T12:46:27.001Z,1.00
2023-02-24T12:48:57.436Z,1.00
2023-02-24T12:51:55.533Z,1.00
2023-02-24T12:54:41.717Z,1.00
2023-02-24T12:57:20.820Z,1.00
2023-02-24T12:59:49.205Z,1.00
2023-02-24T13:02:52.080Z,1.00
2023-02-24T13:05:19.237Z,1.00
2023-02-24T13:08:02.054Z,1.00
2023-02-24T13:10:42.069Z,1.00
2023-02-24T13:13:21.591Z,1.00
2023-02-24T13:16:12.229Z,1.00
2023-02-24T13:18:39.769Z,1.00
2023-02-24T13:21:22.841Z,1.00
2023-02-24T13:24:00.134Z,1.00
2023-02-24T13:26:30.031Z,1.00
2023-02-24T13:29:03.531Z,1.00
2023-02-24T13:31:49.409Z,1.00
2023-02-24T13:34:33.758Z,1.00
2023-02-24T13:37:00.956Z,1.00
2023-02-24T13:39:36.869Z,1.00
2023-02-24T13:42:28.501Z,1.00
2023-02-24T13:45:17.777Z,1.00
2023-02-24T13:47:47.808Z,1.00
2023-02-24T13:50:21.962Z,1.00
2023-02-24T13:53:01.378Z,1.00
2023-02-24T13:55:46.702Z,1.00
2023-02-24T13:58:22.973Z,1.00
2023-02-24T14:01:08.447Z,1.00
2023-02-24T14:03:37.663Z,1.00
2023-02-24T14:06:05.957Z,1.00
2023-02-24T14:08:47.391Z,1.00
2023-02-24T14:11:16.589Z,1.00
2023-02-24T14:13:50.533Z,1.00
2023-02-24T14:16:22.751Z,1.00
2023-02-24T14:18:58.992Z,1.00
2023-02-24T14:21:29.478Z,1.00
2023-02-24T14:24:07.326Z,1.00
2023-02-24T14:26:48.040Z,1.00
2023-02-24T14:29:21.309Z,1.00
2023-02-24T14:31:52.238Z,1.00
2023-02-24T14:34:22.945Z,1.00
2023-02-24T14:36:53.689Z,1.00
2023-02-24T14:39:30.692Z,1.00
2023-02-24T14:42:24.463Z,1.00
2023-02-24T14:44:56.730Z,1.00
2023-02-24T14:47:26.554Z,1.00
2023-02-24T14:49:59.352Z,1.00
2023-02-24T14:52:32.604Z,1.00
2023-02-24T14:55:15.204Z,1.00
2023-02-24T14:57:56.633Z,1.00
2023-02-24T15:00:27.224Z,1.00
2023-02-24T15:03:02.638Z,1.00
2023-02-24T15:05:30.078Z,1.00
2023-02-24T15:07:58.704Z,1.00
2023-02-24T15:10:29.943Z,1.00
2023-02-24T15:13:07.565Z,1.00
2023-02-24T15:15:39.203Z,1.00
2023-02-24T15:18:32.860Z,1.00
2023-02-24T15:21:05.760Z,1.00
2023-02-24T15:23:37.777Z,1.00
2023-02-24T15:26:08.775Z,1.00
2023-02-24T15:28:37.384Z,1.00
2023-02-24T15:31:19.551Z,1.00
2023-02-24T15:34:00.048Z,1.00
2023-02-24T15:36:33.765Z,1.00
2023-02-24T15:39:08.029Z,1.00
2023-02-24T15:41:40.956Z,1.00
2023-02-24T15:44:27.573Z,1.00
2023-02-24T15:46:57.331Z,1.00
2023-02-24T15:49:24.972Z,1.00
2023-02-24T15:51:54.234Z,1.00
2023-02-24T15:54:29.506Z,1.00
2023-02-24T15:56:59.363Z,1.00
2023-02-24T15:59:27.683Z,1.00
2023-02-24T16:01:55.247Z,1.00
2023-02-24T16:04:23.664Z,1.00
2023-02-24T16:06:54.682Z,1.00
2023-02-24T16:09:38.451Z,1.00
2023-02-24T16:12:17.185Z,1.00
2023-02-24T16:14:45.111Z,1.00
2023-02-24T16:17:37.690Z,1.00
2023-02-24T16:20:09.154Z,1.00
2023-02-24T16:22:36.746Z,1.00
2023-02-24T16:25:05.152Z,1.00
2023-02-24T16:27:32.747Z,1.00
2023-02-24T16:30:03.294Z,1.00
2023-02-24T16:32:30.644Z,1.00
2023-02-24T16:34:57.924Z,1.00
2023-02-24T16:37:28.532Z,1.00
2023-02-24T16:39:56.368Z,1.00
2023-02-24T16:42:23.545Z,1.00
2023-02-24T16:44:51.225Z,1.00
2023-02-24T16:47:22.727Z,1.00
2023-02-24T16:49:50.769Z,1.00
2023-02-24T16:52:19.377Z,1.00
2023-02-24T16:54:48.303Z,1.00
2023-02-24T16:57:16.204Z,1.00
2023-02-24T16:59:43.382Z,1.00
2023-02-24T17:02:20.366Z,1.00
2023-02-24T17:04:48.046Z,1.00
2023-02-24T17:07:16.262Z,1.00
2023-02-24T17:09:43.693Z,1.00
2023-02-24T17:12:17.360Z,1.00
2023-02-24T17:14:44.692Z,1.00
2023-02-24T17:17:12.215Z,1.00
2023-02-24T17:19:39.703Z,1.00
2023-02-24T17:22:06.969Z,1.00
2023-02-24T17:24:34.332Z,1.00
2023-02-24T17:27:01.580Z,1.00
2023-02-24T17:29:28.877Z,1.00
2023-02-24T17:31:57.425Z,1.00
2023-02-24T17:34:24.936Z,1.00
2023-02-24T17:36:52.235Z,1.00
2023-02-24T17:39:19.746Z,1.00
2023-02-24T17:41:46.995Z,1.00
2023-02-24T17:44:14.243Z,1.00
2023-02-24T17:46:41.735Z,1.00
2023-02-24T17:49:09.248Z,1.00
2023-02-24T17:51:36.514Z,1.00
2023-02-24T17:54:04.029Z,1.00
2023-02-24T17:56:31.234Z,1.00
2023-02-24T17:59:01.040Z,1.00
2023-02-24T18:01:28.649Z,1.00
2023-02-24T18:03:58.939Z,1.00
2023-02-24T18:06:26.286Z,1.00
2023-02-24T18:08:53.636Z,1.00
2023-02-24T18:11:21.199Z,1.00
2023-02-24T18:13:51.001Z,1.00
2023-02-24T18:16:18.975Z,1.00
2023-02-24T18:18:46.308Z,1.00
2023-02-24T18:21:13.553Z,1.00
2023-02-24T18:23:41.917Z,1.00
2023-02-24T18:26:11.703Z,1.00
2023-02-24T18:28:39.619Z,1.00
2023-02-24T18:31:29.264Z,1.00
2023-02-24T18:33:57.617Z,1.00
2023-02-24T18:36:25.844Z,1.00
2023-02-24T18:38:53.598Z,1.00
2023-02-24T18:41:23.486Z,1.00
2023-02-24T18:43:53.594Z,1.00
2023-02-24T18:46:22.193Z,1.00
2023-02-24T18:48:50.937Z,1.00
2023-02-24T18:51:21.357Z,1.00
2023-02-24T18:53:52.135Z,1.00
2023-02-24T18:56:23.381Z,1.00
2023-02-24T18:58:52.918Z,1.00
2023-02-24T19:01:21.455Z,1.00
2023-02-24T19:03:50.176Z,1.00
2023-02-24T19:06:19.448Z,1.00
2023-02-24T19:08:49.730Z,1.00
2023-02-24T19:11:19.914Z,1.00
2023-02-24T19:13:47.917Z,1.00
2023-02-24T19:16:16.284Z,1.00
2023-02-24T19:18:44.254Z,1.00
2023-02-24T19:21:13.622Z,1.00
2023-02-24T19:23:40.957Z,1.00
2023-02-24T19:26:20.284Z,1.00
2023-02-24T19:28:47.868Z,1.00
2023-02-24T19:31:18.370Z,1.00
2023-02-24T19:33:45.816Z,1.00
2023-02-24T19:36:13.090Z,1.00
2023-02-24T19:38:41.746Z,1.00
2023-02-24T19:41:09.106Z,1.00
2023-02-24T19:43:36.548Z,1.00
2023-02-24T19:46:07.803Z,1.00
2023-02-24T19:48:38.073Z,1.00
2023-02-24T19:51:09.859Z,1.00
2023-02-24T19:53:37.467Z,1.00
2023-02-24T19:56:05.455Z,1.00
2023-02-24T19:58:33.047Z,1.00
2023-02-24T20:01:12.250Z,1.00
2023-02-24T20:03:41.625Z,1.00
2023-02-24T20:06:18.120Z,1.00
2023-02-24T20:08:45.432Z,1.00
2023-02-24T20:11:13.547Z,1.00
2023-02-24T20:13:40.904Z,1.00
2023-02-24T20:16:14.663Z,1.00
2023-02-24T20:18:42.588Z,1.00
2023-02-24T20:21:11.141Z,1.00
2023-02-24T20:23:41.823Z,1.00
2023-02-24T20:26:14.092Z,1.00
2023-02-24T20:28:41.602Z,1.00
2023-02-24T20:31:12.281Z,1.00
2023-02-24T20:33:40.927Z,1.00
2023-02-24T20:36:14.429Z,1.00
2023-02-24T20:38:41.752Z,1.00
2023-02-24T20:41:09.331Z,1.00
2023-02-24T20:43:36.791Z,1.00
2023-02-24T20:46:12.937Z,1.00
2023-02-24T20:48:40.247Z,1.00
2023-02-24T20:51:08.160Z,1.00
2023-02-24T20:53:51.054Z,1.00
2023-02-24T20:56:24.731Z,1.00
2023-02-24T20:58:56.957Z,1.00
2023-02-24T21:01:24.220Z,1.00
2023-02-24T21:03:51.531Z,1.00
2023-02-24T21:06:19.164Z,1.00
2023-02-24T21:08:46.866Z,1.00
2023-02-24T21:11:14.707Z,1.00
2023-02-24T21:13:43.642Z,1.00
2023-02-24T21:16:12.736Z,1.00
2023-02-24T21:18:41.974Z,1.00
2023-02-24T21:21:10.939Z,1.00
2023-02-24T21:23:39.546Z,1.00
2023-02-24T21:26:07.910Z,1.00
2023-02-24T21:28:35.659Z,1.00
2023-02-24T21:31:10.133Z,1.00
2023-02-24T21:33:38.231Z,1.00
2023-02-24T21:36:09.366Z,1.00
2023-02-24T21:38:37.364Z,1.00
2023-02-24T21:41:08.527Z,1.00
2023-02-24T21:43:37.804Z,1.00
2023-02-24T21:46:07.401Z,1.00
2023-02-24T21:48:34.672Z,1.00
2023-02-24T21:51:04.604Z,1.00
2023-02-24T21:53:38.273Z,1.00
2023-02-24T21:56:11.005Z,1.00
2023-02-24T21:58:39.766Z,1.00
2023-02-24T22:01:12.357Z,1.00
2023-02-24T22:03:40.245Z,1.00
2023-02-24T22:06:10.014Z,1.00
2023-02-24T22:08:39.748Z,1.00
2023-02-24T22:11:07.412Z,1.00
2023-02-24T22:13:34.816Z,1.00
2023-02-24T22:16:05.571Z,1.00
2023-02-24T22:18:33.163Z,1.00
2023-02-24T22:21:01.219Z,1.00
2023-02-24T22:23:28.426Z,1.00
2023-02-24T22:25:55.676Z,1.00
2023-02-24T22:28:22.865Z,1.00
2023-02-24T22:30:57.876Z,1.00
2023-02-24T22:33:25.348Z,1.00
2023-02-24T22:35:52.696Z,1.00
2023-02-24T22:38:19.897Z,1.00
2023-02-24T22:40:59.043Z,1.00
2023-02-24T22:43:27.411Z,1.00
2023-02-24T22:46:07.125Z,1.00
2023-02-24T22:48:36.122Z,1.00
2023-02-24T22:51:05.765Z,1.00
2023-02-24T22:53:35.542Z,1.00
2023-02-24T22:56:03.139Z,1.00
2023-02-24T22:58:30.420Z,1.00
2023-02-24T23:00:58.484Z,1.00
2023-02-24T23:03:32.982Z,1.00
2023-02-24T23:06:03.142Z,1.00
2023-02-24T23:08:32.582Z,1.00
2023-02-24T23:11:15.094Z,1.00
2023-02-24T23:13:44.790Z,1.00
2023-02-24T23:16:15.380Z,1.00
2023-02-24T23:18:53.874Z,1.00
2023-02-24T23:21:25.169Z,1.00
2023-02-24T23:23:58.872Z,1.00
2023-02-24T23:26:38.336Z,1.00
2023-02-24T23:29:06.293Z,1.00
2023-02-24T23:31:33.749Z,1.00
2023-02-24T23:34:02.260Z,1.00
2023-02-24T23:36:30.892Z,1.00
2023-02-24T23:38:58.209Z,1.00
2023-02-24T23:41:25.562Z,1.00
2023-02-24T23:43:52.836Z,1.00
2023-02-24T23:46:20.500Z,1.00
2023-02-24T23:48:54.896Z,1.00
2023-02-24T23:51:22.113Z,1.00
2023-02-24T23:53:50.210Z,1.00
2023-02-24T23:56:24.076Z,1.00
2023-02-24T23:58:53.772Z,1.00
